createdAt,value
2023-04-18T00:00:21.663Z,77.9692
2023-04-18T00:01:29.781Z,77.6696
2023-04-18T00:02:38.003Z,78.0581
2023-04-18T00:03:46.080Z,77.8904
2023-04-18T00:04:54.032Z,77.5776
2023-04-18T00:06:01.845Z,77.4147
2023-04-18T00:07:10.076Z,77.6455
2023-04-18T00:08:17.968Z,77.5926
2023-04-18T00:09:26.378Z,76.9287
2023-04-18T00:10:34.230Z,76.8994
2023-04-18T00:11:42.148Z,76.8196
2023-04-18T00:12:50.402Z,76.2578
2023-04-18T00:13:58.460Z,75.9519
2023-04-18T00:15:06.463Z,76.1634
2023-04-18T00:16:14.593Z,75.8649
2023-04-18T00:17:22.696Z,74.9231
2023-04-18T00:18:30.704Z,75.6458
2023-04-18T00:19:38.780Z,75.0933
2023-04-18T00:20:46.782Z,75.5352
2023-04-18T00:21:54.847Z,75.3111
2023-04-18T00:23:02.767Z,75.5105
2023-04-18T00:24:11.052Z,74.7006
2023-04-18T00:25:18.907Z,74.5170
2023-04-18T00:26:27.231Z,75.2439
2023-04-18T00:27:35.159Z,75.8542
2023-04-18T00:28:43.415Z,75.0019
2023-04-18T00:29:51.305Z,75.2939
2023-04-18T00:30:59.357Z,74.7717
2023-04-18T00:32:07.433Z,75.1942
2023-04-18T00:33:15.482Z,74.9446
2023-04-18T00:34:23.625Z,74.8403
2023-04-18T00:35:31.547Z,74.5663
2023-04-18T00:36:39.687Z,74.5609
2023-04-18T00:37:47.739Z,75.4057
2023-04-18T00:38:55.982Z,75.6319
2023-04-18T00:40:03.730Z,75.4913
2023-04-18T00:41:11.910Z,75.5484
2023-04-18T00:42:19.887Z,75.4279
2023-04-18T00:43:28.321Z,74.3519
2023-04-18T00:44:36.155Z,74.1606
2023-04-18T00:45:44.201Z,74.5460
2023-04-18T00:46:52.263Z,74.9163
2023-04-18T00:48:00.391Z,74.8359
2023-04-18T00:49:08.355Z,75.1332
2023-04-18T00:50:16.449Z,74.9464
2023-04-18T00:51:24.566Z,74.8641
2023-04-18T00:52:32.535Z,74.2919
2023-04-18T00:53:40.663Z,74.3413
2023-04-18T00:54:48.702Z,74.5956
2023-04-18T00:55:56.850Z,74.5629
2023-04-18T00:57:04.687Z,74.3404
2023-04-18T00:58:12.871Z,74.3631
2023-04-18T00:59:21.009Z,74.2538
2023-04-18T01:00:29.058Z,73.7367
2023-04-18T01:01:37.141Z,73.9496
2023-04-18T01:02:45.313Z,74.3186
2023-04-18T01:03:53.353Z,73.8930
2023-04-18T01:05:01.496Z,74.4872
2023-04-18T01:06:09.329Z,74.3673
2023-04-18T01:07:17.518Z,74.0966
2023-04-18T01:08:25.362Z,74.0520
2023-04-18T01:09:33.564Z,75.0937
2023-04-18T01:10:41.761Z,74.9945
2023-04-18T01:11:49.683Z,74.6900
2023-04-18T01:12:57.903Z,74.6914
2023-04-18T01:14:05.804Z,75.1385
2023-04-18T01:15:14.186Z,74.9947
2023-04-18T01:16:21.888Z,74.6355
2023-04-18T01:17:30.186Z,74.5065
2023-04-18T01:18:38.095Z,74.7116
2023-04-18T01:19:46.114Z,75.4681
2023-04-18T01:20:54.211Z,75.3331
2023-04-18T01:22:02.366Z,74.8865
2023-04-18T01:23:10.184Z,74.5295
2023-04-18T01:24:18.379Z,74.5119
2023-04-18T01:25:26.538Z,74.2488
2023-04-18T01:26:34.509Z,74.5101
2023-04-18T01:27:42.654Z,74.3729
2023-04-18T01:28:50.602Z,74.3084
2023-04-18T01:29:58.712Z,74.4647
2023-04-18T01:31:06.788Z,74.5339
2023-04-18T01:32:14.997Z,74.2715
2023-04-18T01:33:23.033Z,74.3867
2023-04-18T01:34:30.838Z,74.5820
2023-04-18T01:35:39.024Z,74.8700
2023-04-18T01:36:47.087Z,74.1828
2023-04-18T01:37:55.190Z,74.5226
2023-04-18T01:39:03.254Z,74.0673
2023-04-18T01:40:11.152Z,74.3228
2023-04-18T01:41:19.439Z,74.6964
2023-04-18T01:42:27.410Z,74.9691
2023-04-18T01:43:35.446Z,74.8688
2023-04-18T01:44:43.588Z,75.2669
2023-04-18T01:45:51.442Z,75.3663
2023-04-18T01:46:59.682Z,75.0213
2023-04-18T01:48:07.755Z,75.1147
2023-04-18T01:49:15.791Z,74.9928
2023-04-18T01:50:23.867Z,74.8967
2023-04-18T01:51:32.047Z,75.4437
2023-04-18T01:52:39.974Z,75.5677
2023-04-18T01:53:47.933Z,75.3763
2023-04-18T01:54:56.238Z,76.0483
2023-04-18T01:56:04.189Z,75.7702
2023-04-18T01:57:12.124Z,76.2283
2023-04-18T01:58:20.311Z,75.9973
2023-04-18T01:59:28.253Z,75.7105
2023-04-18T02:00:36.482Z,75.8301
2023-04-18T02:01:44.682Z,76.0899
2023-04-18T02:02:52.569Z,75.2204
2023-04-18T02:04:00.755Z,75.2429
2023-04-18T02:05:08.576Z,75.1910
2023-04-18T02:06:16.771Z,75.6467
2023-04-18T02:07:24.868Z,75.4112
2023-04-18T02:08:32.895Z,74.9597
2023-04-18T02:09:40.979Z,75.3364
2023-04-18T02:10:48.911Z,75.3376
2023-04-18T02:11:57.147Z,75.4847
2023-04-18T02:13:05.288Z,76.3310
2023-04-18T02:14:13.403Z,75.3727
2023-04-18T02:15:21.368Z,75.8695
2023-04-18T02:16:29.394Z,76.2736
2023-04-18T02:17:37.518Z,76.6132
2023-04-18T02:18:45.501Z,75.9183
2023-04-18T02:19:53.593Z,75.4162
2023-04-18T02:21:01.634Z,75.9850
2023-04-18T02:22:09.688Z,76.2396
2023-04-18T02:23:17.843Z,75.9081
2023-04-18T02:24:25.825Z,75.5782
2023-04-18T02:25:33.901Z,75.5413
2023-04-18T02:26:42.001Z,75.6465
2023-04-18T02:27:50.051Z,75.6502
2023-04-18T02:28:58.266Z,76.2832
2023-04-18T02:30:06.302Z,76.3671
2023-04-18T02:31:14.119Z,75.7933
2023-04-18T02:32:22.346Z,76.1200
2023-04-18T02:33:30.406Z,76.4482
2023-04-18T02:34:38.528Z,75.9690
2023-04-18T02:35:46.500Z,75.7827
2023-04-18T02:36:54.439Z,75.4814
2023-04-18T02:38:02.777Z,75.8567
2023-04-18T02:39:10.876Z,75.8278
2023-04-18T02:40:18.660Z,75.8533
2023-04-18T02:41:26.836Z,75.3076
2023-04-18T02:42:34.925Z,75.7666
2023-04-18T02:43:42.963Z,76.3587
2023-04-18T02:44:51.019Z,76.0724
2023-04-18T02:45:59.161Z,75.5049
2023-04-18T02:47:07.218Z,75.5009
2023-04-18T02:48:15.261Z,75.4724
2023-04-18T02:49:23.389Z,76.0345
2023-04-18T02:50:31.296Z,76.0802
2023-04-18T02:51:39.413Z,75.6645
2023-04-18T02:52:47.436Z,76.2288
2023-04-18T02:53:55.388Z,75.8246
2023-04-18T02:55:03.578Z,75.5746
2023-04-18T02:56:11.827Z,76.0615
2023-04-18T02:57:19.599Z,76.0555
2023-04-18T02:58:27.782Z,76.2293
2023-04-18T02:59:35.952Z,76.5600
2023-04-18T03:00:43.949Z,76.7007
2023-04-18T03:01:51.943Z,76.3119
2023-04-18T03:03:00.216Z,76.8273
2023-04-18T03:04:08.054Z,76.7655
2023-04-18T03:05:16.128Z,75.8093
2023-04-18T03:06:24.207Z,76.1133
2023-04-18T03:07:32.237Z,76.6518
2023-04-18T03:08:40.228Z,76.6796
2023-04-18T03:09:48.396Z,76.7115
2023-04-18T03:10:56.514Z,76.2394
2023-04-18T03:12:04.582Z,76.2492
2023-04-18T03:13:12.597Z,76.5372
2023-04-18T03:14:20.702Z,76.6529
2023-04-18T03:15:28.676Z,76.3612
2023-04-18T03:16:36.755Z,75.7146
2023-04-18T03:17:44.707Z,76.4794
2023-04-18T03:18:53.015Z,76.5866
2023-04-18T03:20:00.862Z,76.3098
2023-04-18T03:21:09.027Z,76.1408
2023-04-18T03:22:17.059Z,75.9606
2023-04-18T03:23:25.092Z,76.3285
2023-04-18T03:24:33.174Z,76.3664
2023-04-18T03:25:41.291Z,76.5975
2023-04-18T03:26:49.334Z,76.2686
2023-04-18T03:27:57.405Z,76.0591
2023-04-18T03:29:05.306Z,76.1238
2023-04-18T03:30:13.534Z,76.2802
2023-04-18T03:31:21.625Z,76.3497
2023-04-18T03:32:29.664Z,76.4086
2023-04-18T03:33:37.684Z,76.4491
2023-04-18T03:34:45.856Z,76.5198
2023-04-18T03:35:53.828Z,76.0998
2023-04-18T03:37:01.844Z,76.0924
2023-04-18T03:38:09.974Z,75.8602
2023-04-18T03:39:18.013Z,75.9128
2023-04-18T03:40:26.104Z,75.7556
2023-04-18T03:41:34.137Z,75.4699
2023-04-18T03:42:42.259Z,75.5799
2023-04-18T03:43:50.227Z,75.9690
2023-04-18T03:44:58.388Z,75.6244
2023-04-18T03:46:06.563Z,75.8505
2023-04-18T03:47:14.459Z,75.9510
2023-04-18T03:48:22.427Z,75.8675
2023-04-18T03:49:30.647Z,75.9425
2023-04-18T03:50:38.672Z,76.4433
2023-04-18T03:51:46.692Z,76.7048
2023-04-18T03:52:54.797Z,75.5726
2023-04-18T03:54:02.740Z,75.2037
2023-04-18T03:55:11.156Z,75.5394
2023-04-18T03:56:18.936Z,75.5116
2023-04-18T03:57:27.234Z,75.5824
2023-04-18T03:58:35.113Z,76.2250
2023-04-18T03:59:43.212Z,75.8172
2023-04-18T04:00:51.280Z,75.4743
2023-04-18T04:01:59.353Z,75.8167
2023-04-18T04:03:07.527Z,76.1355
2023-04-18T04:04:15.777Z,76.0331
2023-04-18T04:05:23.546Z,76.1724
2023-04-18T04:06:31.499Z,75.6445
2023-04-18T04:07:39.531Z,75.5913
2023-04-18T04:08:47.608Z,75.7568
2023-04-18T04:09:55.680Z,75.8585
2023-04-18T04:11:03.829Z,75.5772
2023-04-18T04:12:11.872Z,75.5541
2023-04-18T04:13:20.009Z,75.8454
2023-04-18T04:14:27.859Z,75.6413
2023-04-18T04:15:36.029Z,75.8366
2023-04-18T04:16:44.148Z,75.8827
2023-04-18T04:17:52.182Z,75.6855
2023-04-18T04:19:00.190Z,75.7701
2023-04-18T04:20:08.230Z,76.0503
2023-04-18T04:21:16.300Z,76.0997
2023-04-18T04:22:24.435Z,76.5397
2023-04-18T04:23:32.429Z,76.6273
2023-04-18T04:24:40.614Z,76.6160
2023-04-18T04:25:48.537Z,76.7682
2023-04-18T04:26:56.653Z,76.8216
2023-04-18T04:28:04.750Z,76.4415
2023-04-18T04:29:12.752Z,76.0936
2023-04-18T04:30:20.803Z,76.1325
2023-04-18T04:31:28.883Z,76.6636
2023-04-18T04:32:37.021Z,76.6567
2023-04-18T04:33:45.046Z,75.9763
2023-04-18T04:34:53.042Z,75.2263
2023-04-18T04:36:01.256Z,76.1292
2023-04-18T04:37:09.188Z,75.7692
2023-04-18T04:38:17.291Z,75.4352
2023-04-18T04:39:25.396Z,75.8703
2023-04-18T04:40:33.380Z,76.1532
2023-04-18T04:41:41.494Z,76.0722
2023-04-18T04:42:49.494Z,75.6080
2023-04-18T04:43:57.527Z,76.3479
2023-04-18T04:45:05.779Z,75.7609
2023-04-18T04:46:13.718Z,75.6564
2023-04-18T04:47:21.746Z,75.8231
2023-04-18T04:48:29.800Z,75.8724
2023-04-18T04:49:37.938Z,75.9809
2023-04-18T04:50:46.035Z,75.6162
2023-04-18T04:51:53.924Z,75.4103
2023-04-18T04:53:02.104Z,75.8174
2023-04-18T04:54:10.223Z,76.4656
2023-04-18T04:55:18.174Z,76.2148
2023-04-18T04:56:26.273Z,76.2924
2023-04-18T04:57:34.336Z,76.6965
2023-04-18T04:58:42.391Z,76.3061
2023-04-18T04:59:50.438Z,76.0133
2023-04-18T05:00:58.462Z,76.1830
2023-04-18T05:02:06.669Z,76.8110
2023-04-18T05:03:14.933Z,76.2216
2023-04-18T05:04:22.843Z,76.2752
2023-04-18T05:05:30.744Z,76.0642
2023-04-18T05:06:40.306Z,76.1652
2023-04-18T05:07:46.946Z,75.8759
2023-04-18T05:08:55.029Z,76.2405
2023-04-18T05:10:03.135Z,76.3381
2023-04-18T05:11:11.139Z,76.2460
2023-04-18T05:12:19.205Z,76.1452
2023-04-18T05:13:27.419Z,75.4768
2023-04-18T05:14:35.285Z,75.5685
2023-04-18T05:15:43.387Z,75.9928
2023-04-18T05:16:51.479Z,75.5980
2023-04-18T05:17:59.533Z,75.8942
2023-04-18T05:19:07.615Z,75.8965
2023-04-18T05:20:15.576Z,76.0838
2023-04-18T05:21:23.682Z,76.2040
2023-04-18T05:22:31.748Z,76.1174
2023-04-18T05:23:39.846Z,76.4314
2023-04-18T05:24:48.054Z,76.0496
2023-04-18T05:25:56.176Z,75.9580
2023-04-18T05:27:04.021Z,75.5037
2023-04-18T05:28:12.069Z,75.0518
2023-04-18T05:29:20.123Z,75.5280
2023-04-18T05:30:28.208Z,75.6261
2023-04-18T05:31:36.313Z,75.5731
2023-04-18T05:32:44.366Z,75.8401
2023-04-18T05:33:52.483Z,75.6241
2023-04-18T05:35:00.492Z,75.5989
2023-04-18T05:36:08.535Z,75.7900
2023-04-18T05:37:16.566Z,75.9165
2023-04-18T05:38:24.629Z,75.8582
2023-04-18T05:39:32.702Z,75.6827
2023-04-18T05:40:40.762Z,75.2810
2023-04-18T05:41:48.849Z,75.3694
2023-04-18T05:42:56.892Z,75.6188
2023-04-18T05:44:05.929Z,76.4402
2023-04-18T05:45:13.013Z,76.4020
2023-04-18T05:46:21.077Z,75.7432
2023-04-18T05:47:29.228Z,76.1535
2023-04-18T05:48:37.226Z,76.1235
2023-04-18T05:49:45.229Z,75.7458
2023-04-18T05:50:53.332Z,75.4267
2023-04-18T05:52:01.384Z,75.2234
2023-04-18T05:53:09.532Z,75.5565
2023-04-18T05:54:17.606Z,75.9616
2023-04-18T05:55:25.546Z,75.9608
2023-04-18T05:56:33.679Z,75.9070
2023-04-18T05:57:41.776Z,75.5075
2023-04-18T05:58:49.820Z,75.6937
2023-04-18T05:59:57.868Z,75.5654
2023-04-18T06:01:05.848Z,75.9555
2023-04-18T06:02:14.039Z,76.2208
2023-04-18T06:03:22.280Z,76.0251
2023-04-18T06:04:30.412Z,76.2139
2023-04-18T06:05:38.356Z,75.4591
2023-04-18T06:06:46.248Z,75.2749
2023-04-18T06:07:54.305Z,75.2228
2023-04-18T06:09:02.444Z,75.9372
2023-04-18T06:10:10.459Z,76.3656
2023-04-18T06:11:18.424Z,76.0465
2023-04-18T06:12:26.485Z,75.8906
2023-04-18T06:13:34.631Z,76.7002
2023-04-18T06:14:42.729Z,76.6656
2023-04-18T06:15:50.726Z,75.5990
2023-04-18T06:16:58.825Z,75.3872
2023-04-18T06:18:06.875Z,75.6998
2023-04-18T06:19:14.969Z,75.7779
2023-04-18T06:20:23.114Z,75.8631
2023-04-18T06:21:31.076Z,75.6378
2023-04-18T06:22:39.154Z,75.4026
2023-04-18T06:23:47.335Z,75.6645
2023-04-18T06:24:55.280Z,75.5317
2023-04-18T06:26:03.381Z,75.5325
2023-04-18T06:27:20.731Z,75.1970
2023-04-18T06:28:24.358Z,74.8960
2023-04-18T06:29:32.346Z,75.1305
2023-04-18T06:30:40.469Z,75.0368
2023-04-18T06:31:48.648Z,74.8840
2023-04-18T06:32:56.584Z,75.2336
2023-04-18T06:34:04.671Z,75.2825
2023-04-18T06:35:12.840Z,75.1994
2023-04-18T06:36:20.810Z,75.3102
2023-04-18T06:37:28.817Z,75.0120
2023-04-18T06:38:36.895Z,74.7280
2023-04-18T06:39:45.216Z,74.9298
2023-04-18T06:40:53.053Z,75.0366
2023-04-18T06:42:01.142Z,75.0383
2023-04-18T06:43:09.232Z,75.2456
2023-04-18T06:44:17.307Z,75.0961
2023-04-18T06:45:25.403Z,75.1922
2023-04-18T06:46:33.391Z,75.2971
2023-04-18T06:47:41.414Z,74.9246
2023-04-18T06:48:51.047Z,74.8323
2023-04-18T06:49:57.571Z,74.5416
2023-04-18T06:51:05.695Z,74.6286
2023-04-18T06:52:13.734Z,74.6906
2023-04-18T06:53:21.671Z,75.0397
2023-04-18T06:54:29.844Z,74.6486
2023-04-18T06:55:37.997Z,74.5338
2023-04-18T06:56:45.976Z,74.6534
2023-04-18T06:57:54.025Z,74.6506
2023-04-18T06:59:02.140Z,75.0166
2023-04-18T07:00:10.098Z,75.0149
2023-04-18T07:01:18.373Z,74.9544
2023-04-18T07:02:26.356Z,74.8647
2023-04-18T07:03:34.391Z,75.0224
2023-04-18T07:04:42.366Z,74.6520
2023-04-18T07:05:50.502Z,74.8920
2023-04-18T07:06:58.561Z,74.8553
2023-04-18T07:08:06.570Z,74.6140
2023-04-18T07:09:14.630Z,74.7561
2023-04-18T07:10:22.592Z,75.1601
2023-04-18T07:11:30.790Z,74.7773
2023-04-18T07:12:38.734Z,74.6566
2023-04-18T07:13:46.785Z,74.3636
2023-04-18T07:14:54.907Z,74.6146
2023-04-18T07:16:02.953Z,74.9196
2023-04-18T07:17:11.204Z,74.2771
2023-04-18T07:18:30.262Z,74.0549
2023-04-18T07:19:32.054Z,74.2438
2023-04-18T07:20:40.068Z,74.0852
2023-04-18T07:21:48.204Z,74.0654
2023-04-18T07:22:56.246Z,73.2567
2023-04-18T07:24:04.264Z,73.6683
2023-04-18T07:25:12.222Z,73.6310
2023-04-18T07:26:20.379Z,73.7497
2023-04-18T07:27:28.463Z,73.4271
2023-04-18T07:28:36.532Z,74.0142
2023-04-18T07:29:44.570Z,74.5310
2023-04-18T07:30:52.583Z,73.9776
2023-04-18T07:32:00.687Z,74.1810
2023-04-18T07:33:08.814Z,73.5740
2023-04-18T07:34:16.836Z,73.6770
2023-04-18T07:35:24.856Z,73.7634
2023-04-18T07:36:32.860Z,73.3589
2023-04-18T07:37:41.115Z,73.0471
2023-04-18T07:38:49.065Z,72.6315
2023-04-18T07:39:57.143Z,73.4024
2023-04-18T07:41:05.180Z,73.7204
2023-04-18T07:42:13.190Z,73.6093
2023-04-18T07:43:21.312Z,73.2225
2023-04-18T07:44:29.382Z,72.4752
2023-04-18T07:45:37.494Z,72.5114
2023-04-18T07:46:45.604Z,72.6286
2023-04-18T07:47:53.557Z,73.0144
2023-04-18T07:49:01.646Z,72.3326
2023-04-18T07:50:09.704Z,71.8879
2023-04-18T07:51:17.730Z,72.2936
2023-04-18T07:52:25.840Z,73.0056
2023-04-18T07:53:33.820Z,72.7857
2023-04-18T07:54:41.923Z,72.8844
2023-04-18T07:55:50.330Z,72.2805
2023-04-18T07:56:58.169Z,72.3929
2023-04-18T07:58:06.148Z,71.8109
2023-04-18T07:59:14.325Z,71.4377
2023-04-18T08:00:22.183Z,71.6829
2023-04-18T08:01:30.313Z,72.3310
2023-04-18T08:02:38.572Z,71.9623
2023-04-18T08:03:46.577Z,71.6803
2023-04-18T08:04:54.980Z,71.1864
2023-04-18T08:06:02.585Z,70.9873
2023-04-18T08:07:10.676Z,71.0870
2023-04-18T08:08:18.853Z,70.8032
2023-04-18T08:09:26.729Z,70.8019
2023-04-18T08:10:34.720Z,70.5438
2023-04-18T08:11:42.867Z,70.5959
2023-04-18T08:12:50.942Z,69.5356
2023-04-18T08:13:59.036Z,69.8184
2023-04-18T08:15:07.076Z,69.4930
2023-04-18T08:16:17.359Z,68.7243
2023-04-18T08:17:23.207Z,69.0873
2023-04-18T08:18:31.248Z,69.5590
2023-04-18T08:19:39.205Z,68.6124
2023-04-18T08:20:47.517Z,68.5926
2023-04-18T08:21:55.442Z,68.7007
2023-04-18T08:23:08.642Z,67.7199
2023-04-18T08:24:16.376Z,69.0697
2023-04-18T08:25:24.515Z,68.9138
2023-04-18T08:26:32.554Z,69.3435
2023-04-18T08:27:40.678Z,69.6342
2023-04-18T08:28:48.554Z,69.5797
2023-04-18T08:29:56.810Z,69.4809
2023-04-18T08:31:04.743Z,69.1994
2023-04-18T08:32:12.901Z,69.2575
2023-04-18T08:33:20.901Z,69.3951
2023-04-18T08:34:28.935Z,69.6675
2023-04-18T08:35:36.957Z,70.6196
2023-04-18T08:36:45.046Z,71.3178
2023-04-18T08:37:53.019Z,71.2152
2023-04-18T08:39:01.203Z,71.3595
2023-04-18T08:40:09.163Z,70.6888
2023-04-18T08:41:17.415Z,70.0953
2023-04-18T08:42:25.396Z,70.7012
2023-04-18T08:43:33.326Z,71.0294
2023-04-18T08:44:41.475Z,70.6775
2023-04-18T08:45:49.434Z,69.6468
2023-04-18T08:46:57.640Z,69.9140
2023-04-18T08:48:05.586Z,70.9743
2023-04-18T08:49:13.798Z,70.2322
2023-04-18T08:50:21.823Z,69.3754
2023-04-18T08:51:29.770Z,69.5032
2023-04-18T08:52:38.020Z,69.7282
2023-04-18T08:53:46.030Z,69.4209
2023-04-18T08:54:53.969Z,69.2817
2023-04-18T08:56:02.022Z,68.9635
2023-04-18T08:57:10.029Z,68.1125
2023-04-18T08:58:18.087Z,68.2393
2023-04-18T08:59:26.185Z,68.2868
2023-04-18T09:00:34.160Z,67.7066
2023-04-18T09:01:42.313Z,68.5731
2023-04-18T09:02:50.437Z,67.7364
2023-04-18T09:03:58.504Z,67.6549
2023-04-18T09:05:06.466Z,67.6305
2023-04-18T09:06:14.442Z,67.6792
2023-04-18T09:07:22.613Z,68.5216
2023-04-18T09:08:30.747Z,67.9580
2023-04-18T09:09:38.690Z,67.6969
2023-04-18T09:10:46.913Z,68.3344
2023-04-18T09:11:54.716Z,68.7233
2023-04-18T09:13:02.890Z,67.9026
2023-04-18T09:14:11.240Z,67.3100
2023-04-18T09:15:19.003Z,67.3469
2023-04-18T09:16:27.125Z,67.1698
2023-04-18T09:17:35.118Z,66.5934
2023-04-18T09:18:43.228Z,67.0698
2023-04-18T09:19:51.348Z,67.1456
2023-04-18T09:20:59.440Z,67.0064
2023-04-18T09:22:07.397Z,67.8010
2023-04-18T09:23:15.399Z,67.3759
2023-04-18T09:24:23.688Z,67.8006
2023-04-18T09:25:31.717Z,68.3735
2023-04-18T09:26:39.623Z,68.5421
2023-04-18T09:27:47.718Z,67.9539
2023-04-18T09:28:55.674Z,67.5186
2023-04-18T09:30:03.876Z,66.9719
2023-04-18T09:31:12.188Z,66.4746
2023-04-18T09:32:19.992Z,66.8117
2023-04-18T09:33:28.117Z,66.6998
2023-04-18T09:34:35.965Z,66.2359
2023-04-18T09:35:44.177Z,65.9937
2023-04-18T09:36:52.292Z,65.9974
2023-04-18T09:38:00.349Z,65.7013
2023-04-18T09:39:08.297Z,66.0404
2023-04-18T09:40:16.264Z,65.7246
2023-04-18T09:41:24.403Z,65.7756
2023-04-18T09:42:32.486Z,66.6890
2023-04-18T09:43:40.404Z,66.6923
2023-04-18T09:44:48.486Z,66.0513
2023-04-18T09:45:56.617Z,65.1939
2023-04-18T09:47:04.715Z,65.7962
2023-04-18T09:48:12.781Z,65.4947
2023-04-18T09:49:20.713Z,65.2332
2023-04-18T09:50:28.838Z,65.3051
2023-04-18T09:51:36.949Z,66.2889
2023-04-18T09:52:45.301Z,66.6698
2023-04-18T09:53:53.037Z,67.1758
2023-04-18T09:55:01.210Z,67.1693
2023-04-18T09:56:09.197Z,67.3847
2023-04-18T09:57:17.186Z,66.9744
2023-04-18T09:58:25.205Z,67.0866
2023-04-18T09:59:33.191Z,66.8168
2023-04-18T10:00:41.376Z,65.7973
2023-04-18T10:01:49.482Z,66.0618
2023-04-18T10:02:57.502Z,65.8638
2023-04-18T10:04:05.552Z,65.8386
2023-04-18T10:05:13.803Z,64.9809
2023-04-18T10:06:21.559Z,64.2659
2023-04-18T10:07:29.702Z,64.4931
2023-04-18T10:08:37.762Z,64.3911
2023-04-18T10:09:45.781Z,64.3075
2023-04-18T10:10:53.917Z,63.9651
2023-04-18T10:12:02.073Z,63.5636
2023-04-18T10:13:09.995Z,63.9120
2023-04-18T10:14:18.259Z,63.8260
2023-04-18T10:15:26.047Z,63.9349
2023-04-18T10:16:35.654Z,63.6747
2023-04-18T10:17:52.551Z,62.5392
2023-04-18T10:18:55.157Z,62.5539
2023-04-18T10:20:03.180Z,62.9841
2023-04-18T10:21:11.186Z,62.5692
2023-04-18T10:22:19.348Z,62.2645
2023-04-18T10:23:28.174Z,63.4044
2023-04-18T10:24:35.344Z,61.3592
2023-04-18T10:25:43.475Z,62.9923
2023-04-18T10:26:51.447Z,60.5414
2023-04-18T10:27:59.622Z,59.5552
2023-04-18T10:29:07.644Z,59.1360
2023-04-18T10:30:15.632Z,58.2727
2023-04-18T10:31:23.864Z,57.2139
2023-04-18T10:32:31.801Z,56.3202
2023-04-18T10:33:42.442Z,56.3726
2023-04-18T10:34:52.807Z,56.1850
2023-04-18T10:36:01.037Z,56.5860
2023-04-18T10:37:08.938Z,58.0968
2023-04-18T10:38:17.006Z,57.9803
2023-04-18T10:39:25.059Z,59.1039
2023-04-18T10:40:33.078Z,58.6391
2023-04-18T10:41:41.304Z,58.6193
2023-04-18T10:42:49.217Z,58.3287
2023-04-18T10:43:57.239Z,59.4614
2023-04-18T10:45:05.605Z,59.3674
2023-04-18T10:46:24.270Z,60.1532
2023-04-18T10:47:26.331Z,59.6098
2023-04-18T10:48:38.459Z,59.0166
2023-04-18T10:49:47.384Z,57.6059
2023-04-18T10:50:55.240Z,57.2473
2023-04-18T10:52:03.362Z,55.4177
2023-04-18T10:53:11.407Z,54.7241
2023-04-18T10:54:19.545Z,54.0056
2023-04-18T10:55:27.592Z,54.4791
2023-04-18T10:56:35.578Z,54.5698
2023-04-18T10:57:43.696Z,52.7101
2023-04-18T10:58:51.741Z,55.3798
2023-04-18T10:59:59.693Z,56.4145
2023-04-18T11:01:07.963Z,56.6039
2023-04-18T11:02:15.786Z,55.7174
2023-04-18T11:03:23.986Z,55.7250
2023-04-18T11:04:32.011Z,55.2465
2023-04-18T11:05:40.063Z,53.4747
2023-04-18T11:06:48.130Z,54.1595
2023-04-18T11:07:56.090Z,55.3656
2023-04-18T11:09:04.350Z,56.0394
2023-04-18T11:10:12.335Z,57.2447
2023-04-18T11:11:20.368Z,57.2524
2023-04-18T11:12:28.477Z,58.5702
2023-04-18T11:13:36.341Z,58.6391
2023-04-18T11:14:44.497Z,58.6302
2023-04-18T11:15:52.645Z,59.2890
2023-04-18T11:17:00.575Z,59.0581
2023-04-18T11:18:08.718Z,59.4191
2023-04-18T11:19:16.920Z,60.3658
2023-04-18T11:20:24.772Z,60.6961
2023-04-18T11:21:32.883Z,60.7430
2023-04-18T11:22:40.828Z,59.6617
2023-04-18T11:23:49.011Z,58.4111
2023-04-18T11:24:57.044Z,58.8327
2023-04-18T11:26:05.064Z,59.2817
2023-04-18T11:27:13.091Z,59.6698
2023-04-18T11:28:21.207Z,60.2829
2023-04-18T11:29:29.234Z,60.0663
2023-04-18T11:30:37.213Z,61.0383
2023-04-18T11:31:45.535Z,60.3312
2023-04-18T11:32:53.396Z,60.0432
2023-04-18T11:34:01.352Z,60.1644
2023-04-18T11:35:09.544Z,61.1356
2023-04-18T11:36:17.570Z,62.1581
2023-04-18T11:37:25.626Z,60.9332
2023-04-18T11:38:33.636Z,61.7342
2023-04-18T11:39:41.682Z,60.6602
2023-04-18T11:40:49.920Z,61.0378
2023-04-18T11:41:57.737Z,60.8116
2023-04-18T11:43:05.857Z,60.8841
2023-04-18T11:44:13.954Z,61.0820
2023-04-18T11:45:22.076Z,61.6291
2023-04-18T11:46:30.184Z,59.1934
2023-04-18T11:47:38.199Z,58.6315
2023-04-18T11:48:46.070Z,58.9202
2023-04-18T11:49:56.500Z,57.1668
2023-04-18T11:51:07.365Z,55.5460
2023-04-18T11:52:15.207Z,53.9417
2023-04-18T11:53:23.154Z,53.4660
2023-04-18T11:54:31.266Z,53.6035
2023-04-18T11:55:39.342Z,52.8226
2023-04-18T11:56:47.372Z,53.6162
2023-04-18T11:57:55.543Z,52.9108
2023-04-18T11:59:03.630Z,51.1320
2023-04-18T12:00:11.519Z,51.5918
2023-04-18T12:01:19.720Z,51.4517
2023-04-18T12:02:27.857Z,52.1937
2023-04-18T12:03:35.950Z,53.0071
2023-04-18T12:04:44.088Z,54.3813
2023-04-18T12:05:51.993Z,54.7213
2023-04-18T12:06:59.930Z,55.4659
2023-04-18T12:08:08.164Z,55.4478
2023-04-18T12:09:15.970Z,54.3416
2023-04-18T12:10:24.074Z,53.5322
2023-04-18T12:11:32.182Z,53.9666
2023-04-18T12:12:40.202Z,53.0756
2023-04-18T12:13:48.277Z,52.9402
2023-04-18T12:14:56.329Z,53.9992
2023-04-18T12:16:04.389Z,53.6263
2023-04-18T12:17:12.511Z,53.4369
2023-04-18T12:18:20.483Z,54.4971
2023-04-18T12:19:28.613Z,54.3396
2023-04-18T12:20:36.601Z,54.0197
2023-04-18T12:21:44.631Z,54.1275
2023-04-18T12:22:52.651Z,54.5041
2023-04-18T12:24:00.758Z,54.9304
2023-04-18T12:25:08.883Z,55.6863
2023-04-18T12:26:16.835Z,54.2913
2023-04-18T12:27:24.953Z,53.0672
2023-04-18T12:28:33.031Z,53.2283
2023-04-18T12:29:41.018Z,52.0074
2023-04-18T12:30:49.137Z,51.8420
2023-04-18T12:31:57.187Z,48.6966
2023-04-18T12:33:05.265Z,47.9320
2023-04-18T12:34:13.433Z,46.5462
2023-04-18T12:35:21.250Z,46.3372
2023-04-18T12:36:29.423Z,45.5720
2023-04-18T12:37:37.526Z,45.6715
2023-04-18T12:38:45.481Z,45.9252
2023-04-18T12:39:53.601Z,47.7466
2023-04-18T12:41:01.617Z,44.6613
2023-04-18T12:42:09.697Z,46.5508
2023-04-18T12:43:17.659Z,45.1088
2023-04-18T12:44:25.758Z,45.3115
2023-04-18T12:45:33.735Z,47.4952
2023-04-18T12:46:41.869Z,48.1837
2023-04-18T12:47:50.016Z,48.5559
2023-04-18T12:48:57.973Z,49.5321
2023-04-18T12:50:06.103Z,48.4310
2023-04-18T12:51:14.093Z,48.7693
2023-04-18T12:52:22.071Z,49.4157
2023-04-18T12:53:30.277Z,48.2887
2023-04-18T12:54:38.286Z,49.4034
2023-04-18T12:55:46.321Z,49.9026
2023-04-18T12:56:54.409Z,49.0906
2023-04-18T12:58:02.572Z,48.3371
2023-04-18T12:59:10.565Z,46.8790
2023-04-18T13:00:18.504Z,45.1008
2023-04-18T13:01:26.766Z,45.7481
2023-04-18T13:02:34.845Z,45.7962
2023-04-18T13:03:42.770Z,45.2781
2023-04-18T13:04:50.953Z,46.2196
2023-04-18T13:05:58.794Z,46.2093
2023-04-18T13:07:06.920Z,47.3183
2023-04-18T13:08:17.677Z,46.1080
2023-04-18T13:09:27.918Z,46.1112
2023-04-18T13:10:36.163Z,44.8207
2023-04-18T13:11:43.958Z,46.1890
2023-04-18T13:12:52.040Z,44.2223
2023-04-18T13:14:00.168Z,44.4245
2023-04-18T13:15:08.176Z,46.2561
2023-04-18T13:16:16.294Z,46.6810
2023-04-18T13:17:24.289Z,48.3268
2023-04-18T13:18:32.294Z,47.1440
2023-04-18T13:19:40.463Z,46.7848
2023-04-18T13:20:48.544Z,46.3465
2023-04-18T13:21:56.688Z,45.0094
2023-04-18T13:23:04.694Z,45.0710
2023-04-18T13:24:12.621Z,43.5369
2023-04-18T13:25:20.726Z,43.1169
2023-04-18T13:26:28.836Z,42.2361
2023-04-18T13:27:37.358Z,41.8462
2023-04-18T13:28:44.891Z,41.7967
2023-04-18T13:29:52.979Z,42.4505
2023-04-18T13:31:01.200Z,42.1083
2023-04-18T13:32:09.301Z,41.9351
2023-04-18T13:33:17.251Z,44.7122
2023-04-18T13:34:25.399Z,43.1257
2023-04-18T13:35:33.325Z,41.2432
2023-04-18T13:36:41.402Z,41.1135
2023-04-18T13:37:49.552Z,42.5428
2023-04-18T13:38:57.523Z,42.7585
2023-04-18T13:40:05.589Z,40.1681
2023-04-18T13:41:13.911Z,41.9703
2023-04-18T13:42:21.701Z,39.9398
2023-04-18T13:43:29.789Z,39.5951